To NAV CANADA Home Page Login to a new session Search on AWWS site Feedback and Comments Disclaimer Vers la page française équivalente Tips FAQ What's new on the site To the Forecasts and Observations / NOTAM section To "File a Flight Plan" website Publications and other links Update of the User's profile FIC Telephone Numbers My Weather Data Folder Route Weather Data Regional Weather Data Local Weather Data To the Forecasts and Observations / NOTAM section
Request Generated 04/18/2014 at 20:59:14 UTC . Weather information available at that time is displayed.

METAR/TAF

SARNIA/SARNIA (CHRIS HADFIELD)/ON    (show WxCam)

METAR CYZR 182000Z AUTO 03011KT 9SM CLR 06/01 A3030 RMK SLP266=
METAR CYZR 181900Z AUTO 36009KT 9SM SCT018 BKN030 OVC055 05/02 A3032
RMK SLP274=
SPECI CYZR 181843Z AUTO 01010KT 9SM SCT018 BKN030 OVC049 05/02 A3032
RMK SLP273=
METAR CYZR 181800Z AUTO 02007KT 9SM OVC018 05/02 A3032 RMK SLP271=

TAF CYZR 181939Z 1820/1902 36008KT P6SM FEW030 TEMPO 1820/1822 SCT015
BKN030
RMK FCST BASED ON AUTO OBS. NXT FCST WILL BE ISSUED AT 191145Z=
Your time UTC time
Weather data provided by Environment Canada and NAV CANADA